Weather at Dahnke Airport

Public forecast

Using degrees Fahrenheit for public forecast. Weather courtesy of forecast.io.

Closest aviation weather report (METAR) to Dahnke Airport

Closest report is Purdue University Airport, 5.0 nm (9.3 km) SSW. Retrieved 2021/09/23 18:54 UTC (48 minutes ago):

KLAF 231854Z 29010G20KT 10SM SCT049 BKN060 BKN070 19/07 A2995 RMK AO2 SLP139 T01890072

Closest aviation forecast (TAF) to Dahnke Airport

Closest forecast is Purdue University Airport, 5.0 nm (9.3 km) SSW. Retrieved 2021/09/23 18:42 UTC (1 hour ago):

TAF KLAF 231740Z 2318/2418 32008KT P6SM BKN035 FM240000 28006KT P6SM FEW250